Time;durP1;ratioP1;P1;durP2;ratioP2;P2;SDS_P1;SDS_P2;PMS_P1;PMS_P2;Temp;Humidity;BMP_temperature;BMP_pressure;BME280_temperature;BME280_humidity;BME280_pressure;Samples;Min_cycle;Max_cycle;Signal;HPM_P1;HPM_P2
2021/04/21 00:00:40;;;;;;;5.70;3.30;;;6.30;99.90;;;;;;5021781;28;20212;-53
2021/04/21 00:03:07;;;;;;;6.00;3.83;;;6.30;99.90;;;;;;5024638;28;20234;-54
2021/04/21 00:05:34;;;;;;;6.63;4.17;;;6.30;99.90;;;;;;5020857;28;20192;-57
2021/04/21 00:08:00;;;;;;;4.07;3.63;;;6.30;99.90;;;;;;5025026;28;20691;-56
2021/04/21 00:10:27;;;;;;;5.60;4.17;;;6.20;99.90;;;;;;5003525;28;20219;-55
2021/04/21 00:12:56;;;;;;;9.67;4.07;;;6.30;99.90;;;;;;5025419;28;20214;-55
2021/04/21 00:15:24;;;;;;;5.97;4.10;;;6.20;99.90;;;;;;5020983;28;20206;-55
2021/04/21 00:17:57;;;;;;;5.87;3.77;;;6.20;99.90;;;;;;5023951;28;20200;-54
2021/04/21 00:20:24;;;;;;;5.93;3.50;;;6.20;99.90;;;;;;5016369;28;20216;-54
2021/04/21 00:22:54;;;;;;;5.80;3.73;;;6.20;99.90;;;;;;5018049;28;20225;-58
2021/04/21 00:25:20;;;;;;;4.90;4.10;;;6.10;99.90;;;;;;5016400;28;20211;-53
2021/04/21 00:27:47;;;;;;;6.67;4.10;;;6.10;99.90;;;;;;5011071;28;20211;-57
2021/04/21 00:30:14;;;;;;;5.00;3.67;;;6.00;99.90;;;;;;5020747;28;20230;-56
2021/04/21 00:32:44;;;;;;;4.03;3.60;;;6.10;99.90;;;;;;5016263;28;20199;-58
2021/04/21 00:35:13;;;;;;;4.57;3.93;;;6.00;99.90;;;;;;5020668;28;20196;-54
2021/04/21 00:37:41;;;;;;;4.53;3.77;;;6.00;99.90;;;;;;5022143;28;20297;-57
2021/04/21 00:40:12;;;;;;;4.43;3.70;;;6.10;99.90;;;;;;5019112;28;20220;-57
2021/04/21 00:42:45;;;;;;;6.97;4.33;;;6.00;99.90;;;;;;5007887;28;20884;-59
2021/04/21 00:45:14;;;;;;;4.23;3.83;;;6.00;99.90;;;;;;5023225;28;20284;-56
2021/04/21 00:47:49;;;;;;;8.20;5.00;;;6.00;99.90;;;;;;5018964;28;20188;-57
2021/04/21 00:50:19;;;;;;;6.97;4.57;;;6.10;99.90;;;;;;5021411;28;20219;-56
2021/04/21 00:52:49;;;;;;;9.63;5.07;;;6.30;99.90;;;;;;5022450;28;20192;-59
2021/04/21 00:55:20;;;;;;;6.70;4.50;;;6.30;99.90;;;;;;5019627;28;20200;-53
2021/04/21 00:57:56;;;;;;;7.03;4.20;;;6.30;99.90;;;;;;5007968;28;20342;-58
2021/04/21 01:00:26;;;;;;;6.33;4.23;;;6.30;99.90;;;;;;5020148;28;20229;-55
2021/04/21 01:03:05;;;;;;;5.77;4.73;;;6.20;99.90;;;;;;5022512;28;20212;-57
2021/04/21 01:05:37;;;;;;;6.30;4.43;;;6.30;99.90;;;;;;5019670;28;20197;-57
2021/04/21 01:08:08;;;;;;;7.80;5.10;;;6.40;99.90;;;;;;5024212;28;20214;-58
2021/04/21 01:10:42;;;;;;;5.23;4.70;;;6.50;99.90;;;;;;5020201;28;20555;-58
2021/04/21 01:13:10;;;;;;;7.27;4.80;;;6.60;99.90;;;;;;5011324;28;20213;-54
2021/04/21 01:15:40;;;;;;;7.17;4.50;;;6.70;99.90;;;;;;5029380;28;20979;-55
2021/04/21 01:18:08;;;;;;;7.63;5.20;;;6.80;99.90;;;;;;5026281;28;20259;-55
2021/04/21 01:20:43;;;;;;;6.40;4.47;;;6.80;99.90;;;;;;5037160;28;20265;-55
2021/04/21 01:23:29;;;;;;;7.27;4.47;;;6.90;99.90;;;;;;5029133;28;20577;-54
2021/04/21 01:26:07;;;;;;;8.57;5.40;;;6.90;99.90;;;;;;5022340;28;20254;-54
2021/04/21 01:28:38;;;;;;;10.60;5.33;;;7.00;99.90;;;;;;5005101;28;25402;-54
2021/04/21 01:31:05;;;;;;;6.70;4.73;;;7.00;99.90;;;;;;5043432;28;20618;-54
2021/04/21 01:33:33;;;;;;;8.50;4.60;;;7.00;99.90;;;;;;5039661;28;20240;-56
2021/04/21 01:36:03;;;;;;;5.80;4.70;;;7.10;99.90;;;;;;5031047;28;20200;-55
2021/04/21 01:38:30;;;;;;;7.03;4.50;;;7.10;99.90;;;;;;5019313;28;20192;-56
2021/04/21 01:40:58;;;;;;;5.40;4.03;;;7.10;99.90;;;;;;5022838;28;20234;-57
2021/04/21 01:43:30;;;;;;;8.30;4.50;;;7.10;99.90;;;;;;5008405;28;20720;-54
2021/04/21 01:46:01;;;;;;;5.67;4.53;;;7.10;99.90;;;;;;5018962;28;20187;-56
2021/04/21 01:48:29;;;;;;;7.17;4.37;;;7.10;99.90;;;;;;5033079;28;20195;-56
2021/04/21 01:50:55;;;;;;;7.03;4.37;;;7.10;99.90;;;;;;5032186;28;20228;-57
2021/04/21 01:53:33;;;;;;;6.50;4.63;;;7.10;99.90;;;;;;5020417;28;20557;-55
2021/04/21 01:56:08;;;;;;;8.13;4.43;;;7.10;99.90;;;;;;5023309;28;20195;-56
2021/04/21 01:58:48;;;;;;;7.97;4.80;;;7.10;99.90;;;;;;5008732;28;20267;-58
2021/04/21 02:01:44;;;;;;;7.77;5.03;;;7.00;99.90;;;;;;5041394;28;20211;-55
2021/04/21 02:04:26;;;;;;;6.10;4.70;;;7.00;99.90;;;;;;5021100;28;20217;-54
2021/04/21 02:07:01;;;;;;;7.20;4.20;;;7.00;99.90;;;;;;5023259;28;20196;-57
2021/04/21 02:10:05;;;;;;;9.53;5.23;;;7.00;99.90;;;;;;5019178;28;20195;-58
2021/04/21 02:13:00;;;;;;;7.00;5.00;;;7.00;99.90;;;;;;5018018;28;20199;-58
2021/04/21 02:15:36;;;;;;;7.17;4.83;;;7.00;99.90;;;;;;5016140;28;20207;-56
2021/04/21 02:18:17;;;;;;;7.07;4.77;;;6.90;99.90;;;;;;5014102;28;20679;-57
2021/04/21 02:20:47;;;;;;;9.60;4.77;;;6.90;99.90;;;;;;5039791;28;20215;-57
2021/04/21 02:23:22;;;;;;;9.03;5.33;;;6.90;99.90;;;;;;5036062;28;20578;-54
2021/04/21 02:26:03;;;;;;;6.77;5.60;;;6.90;99.90;;;;;;5022325;28;20253;-57
2021/04/21 02:28:42;;;;;;;5.53;4.73;;;6.90;99.90;;;;;;5006916;28;20396;-57
2021/04/21 02:31:16;;;;;;;7.87;4.87;;;6.80;99.90;;;;;;5029365;28;20214;-56
2021/04/21 02:33:50;;;;;;;7.17;5.13;;;6.80;99.90;;;;;;5032170;28;20187;-59
2021/04/21 02:36:25;;;;;;;9.37;5.23;;;6.70;99.90;;;;;;5020886;28;20196;-55
2021/04/21 02:38:59;;;;;;;8.07;4.50;;;6.50;99.90;;;;;;5022425;28;20617;-58
2021/04/21 02:41:32;;;;;;;8.67;4.80;;;6.40;99.90;;;;;;5019628;28;20223;-52
2021/04/21 02:44:11;;;;;;;5.67;4.63;;;6.30;99.90;;;;;;5021191;28;20223;-56
2021/04/21 02:46:45;;;;;;;8.83;5.20;;;6.30;99.90;;;;;;5029220;28;20211;-57
2021/04/21 02:49:26;;;;;;;8.47;5.73;;;6.40;99.90;;;;;;5024433;28;20257;-55
2021/04/21 02:52:03;;;;;;;7.23;5.13;;;6.40;99.90;;;;;;5042950;28;20234;-56
2021/04/21 02:54:42;;;;;;;8.30;5.20;;;6.50;99.90;;;;;;5026638;28;20275;-57
2021/04/21 02:57:15;;;;;;;8.83;5.30;;;6.50;99.90;;;;;;5022258;28;20203;-55
2021/04/21 02:59:48;;;;;;;6.83;5.40;;;6.40;99.90;;;;;;5020181;28;20188;-56
2021/04/21 03:02:22;;;;;;;8.80;5.60;;;6.50;99.90;;;;;;5008931;28;20224;-56
2021/04/21 03:04:53;;;;;;;7.60;5.93;;;6.50;99.90;;;;;;5022218;28;20533;-58
2021/04/21 03:07:31;;;;;;;10.50;5.20;;;6.50;99.90;;;;;;5008189;28;20204;-54
2021/04/21 03:10:04;;;;;;;9.50;5.70;;;6.50;99.90;;;;;;5023160;28;20219;-58
2021/04/21 03:12:32;;;;;;;11.93;5.90;;;6.50;99.90;;;;;;5020712;28;20196;-57
2021/04/21 03:15:04;;;;;;;7.57;5.60;;;6.50;99.90;;;;;;5024356;28;20198;-59
2021/04/21 03:17:31;;;;;;;8.87;5.30;;;6.50;99.90;;;;;;5010547;28;20207;-56
2021/04/21 03:20:03;;;;;;;6.47;5.30;;;6.50;99.90;;;;;;5044289;28;20196;-55
2021/04/21 03:22:31;;;;;;;7.73;5.77;;;6.50;99.90;;;;;;5040636;28;20863;-57
2021/04/21 03:25:08;;;;;;;8.77;5.97;;;6.40;99.90;;;;;;5027572;28;20208;-58
2021/04/21 03:27:37;;;;;;;5.37;4.83;;;6.40;99.90;;;;;;5030342;28;20207;-57
2021/04/21 03:30:10;;;;;;;9.27;5.70;;;6.40;99.90;;;;;;5041402;28;20207;-56
2021/04/21 03:32:39;;;;;;;7.27;5.83;;;6.30;99.90;;;;;;5012870;28;20207;-58
2021/04/21 03:35:09;;;;;;;9.70;6.13;;;6.30;99.90;;;;;;5026824;28;20195;-55
2021/04/21 03:37:46;;;;;;;6.70;5.60;;;6.20;99.90;;;;;;5021823;28;20214;-58
2021/04/21 03:40:13;;;;;;;7.07;5.47;;;6.00;99.90;;;;;;5021215;28;20211;-57
2021/04/21 03:42:41;;;;;;;12.40;5.70;;;5.90;99.90;;;;;;5025838;28;20224;-58
2021/04/21 03:45:09;;;;;;;7.27;5.70;;;5.80;99.90;;;;;;5025991;28;20188;-57
2021/04/21 03:47:35;;;;;;;6.97;5.83;;;5.80;99.90;;;;;;5014406;28;20204;-55
2021/04/21 03:50:04;;;;;;;11.17;6.23;;;5.70;99.90;;;;;;5041313;28;20196;-56
2021/04/21 03:52:34;;;;;;;7.23;5.73;;;5.60;99.90;;;;;;5032665;28;20665;-56
2021/04/21 03:55:01;;;;;;;7.27;5.67;;;5.60;99.90;;;;;;5022928;28;20226;-55
2021/04/21 03:57:29;;;;;;;10.23;6.67;;;5.50;99.90;;;;;;5024585;28;20199;-58
2021/04/21 03:59:58;;;;;;;13.07;6.97;;;5.50;99.90;;;;;;5023165;28;20188;-56
2021/04/21 04:02:26;;;;;;;9.90;6.33;;;5.60;99.90;;;;;;5018653;28;20219;-54
2021/04/21 04:04:57;;;;;;;10.80;6.03;;;5.50;99.90;;;;;;5034251;28;20207;-58
2021/04/21 04:07:27;;;;;;;10.57;6.00;;;5.40;99.90;;;;;;5029852;28;20734;-51
2021/04/21 04:09:58;;;;;;;9.43;5.80;;;5.30;99.90;;;;;;5024052;28;20212;-59
2021/04/21 04:12:26;;;;;;;8.17;6.20;;;5.30;99.90;;;;;;5022319;28;20270;-53
2021/04/21 04:14:54;;;;;;;14.30;5.73;;;5.20;99.90;;;;;;5024231;28;20303;-56
2021/04/21 04:17:22;;;;;;;7.03;6.23;;;5.20;99.90;;;;;;5018130;28;20673;-54
2021/04/21 04:19:50;;;;;;;11.40;6.13;;;5.10;99.90;;;;;;5016451;28;20207;-57
2021/04/21 04:22:18;;;;;;;10.27;5.70;;;5.10;99.90;;;;;;5024981;28;20241;-57
2021/04/21 04:24:48;;;;;;;7.53;5.23;;;5.10;99.90;;;;;;5021692;28;20839;-58
2021/04/21 04:27:17;;;;;;;8.63;5.60;;;5.10;99.90;;;;;;5023811;28;20204;-55
2021/04/21 04:29:45;;;;;;;9.60;7.00;;;5.10;99.90;;;;;;5021844;28;20184;-57
2021/04/21 04:32:13;;;;;;;8.67;6.20;;;5.10;99.90;;;;;;5024791;28;20200;-56
2021/04/21 04:34:43;;;;;;;7.90;6.27;;;5.10;99.90;;;;;;5011578;28;21106;-59
2021/04/21 04:37:11;;;;;;;8.53;6.03;;;5.10;99.90;;;;;;5031618;28;20211;-57
2021/04/21 04:39:38;;;;;;;11.80;6.80;;;5.10;99.90;;;;;;5023014;28;20200;-59
2021/04/21 04:42:05;;;;;;;9.87;6.57;;;5.00;99.90;;;;;;5024536;28;20258;-57
2021/04/21 04:44:34;;;;;;;13.50;6.97;;;4.90;99.90;;;;;;5020046;28;20192;-56
2021/04/21 04:47:04;;;;;;;8.67;5.70;;;4.90;99.90;;;;;;5024363;28;20200;-57
2021/04/21 04:49:37;;;;;;;11.23;6.63;;;4.90;99.90;;;;;;5009007;28;20216;-54
2021/04/21 04:52:06;;;;;;;14.70;6.23;;;4.80;99.90;;;;;;5030083;28;20271;-56
2021/04/21 04:54:34;;;;;;;10.47;6.70;;;4.90;99.90;;;;;;5012784;28;20204;-58
2021/04/21 04:57:02;;;;;;;8.80;5.73;;;5.00;99.90;;;;;;5024276;28;20188;-58
2021/04/21 04:59:30;;;;;;;10.13;6.57;;;4.90;99.90;;;;;;5019897;28;20219;-53
2021/04/21 05:01:58;;;;;;;18.47;7.10;;;4.90;99.90;;;;;;5024155;28;20281;-57
2021/04/21 05:04:30;;;;;;;10.70;6.77;;;5.00;99.90;;;;;;5012707;28;20196;-54
2021/04/21 05:07:02;;;;;;;13.27;7.03;;;5.00;99.90;;;;;;5019731;28;20192;-58
2021/04/21 05:09:31;;;;;;;9.73;6.53;;;5.00;99.90;;;;;;5031483;28;20601;-56
2021/04/21 05:11:58;;;;;;;10.43;6.37;;;5.00;99.90;;;;;;5014199;28;20224;-55
2021/04/21 05:14:26;;;;;;;12.10;6.60;;;5.00;99.90;;;;;;5020861;28;20204;-54
2021/04/21 05:17:54;;;;;;;8.67;6.60;;;5.00;99.90;;;;;;5023043;28;20192;-56
2021/04/21 05:21:15;;;;;;;9.47;6.43;;;5.10;99.90;;;;;;5008621;28;20227;-54
2021/04/21 05:24:16;;;;;;;14.30;7.00;;;5.20;99.90;;;;;;5036860;28;20207;-57
2021/04/21 05:27:22;;;;;;;13.17;8.37;;;5.30;99.90;;;;;;5032050;28;20907;-58
2021/04/21 05:30:31;;;;;;;12.83;7.43;;;5.40;99.90;;;;;;5015831;28;20203;-57
2021/04/21 05:33:43;;;;;;;11.97;8.17;;;5.50;99.90;;;;;;5013364;28;20200;-57
2021/04/21 05:36:56;;;;;;;13.80;8.83;;;5.70;99.90;;;;;;5017477;28;20206;-57
2021/04/21 05:40:07;;;;;;;15.70;8.37;;;6.00;99.90;;;;;;5024579;28;20648;-53
2021/04/21 05:43:07;;;;;;;18.47;9.17;;;6.20;99.90;;;;;;4973532;28;20213;-57
2021/04/21 05:46:06;;;;;;;16.07;9.30;;;6.40;99.90;;;;;;5018433;28;20196;-58
2021/04/21 05:49:23;;;;;;;12.77;8.73;;;6.60;99.90;;;;;;5014857;28;20359;-59
2021/04/21 05:52:13;;;;;;;12.87;8.83;;;6.70;99.90;;;;;;5013309;28;20224;-59
2021/04/21 05:55:16;;;;;;;12.83;9.20;;;6.90;99.90;;;;;;5040181;28;20195;-59
2021/04/21 05:58:09;;;;;;;14.00;9.37;;;7.00;99.90;;;;;;5016702;28;21874;-59
2021/04/21 06:01:07;;;;;;;14.53;9.00;;;7.20;99.90;;;;;;5018717;28;20219;-59
2021/04/21 06:03:37;;;;;;;13.37;9.13;;;7.40;99.90;;;;;;5015308;28;20350;-59
2021/04/21 06:06:04;;;;;;;11.17;8.47;;;7.60;99.90;;;;;;5028730;28;20227;-57
2021/04/21 06:08:32;;;;;;;12.97;9.37;;;7.80;99.90;;;;;;5013880;28;20212;-57
2021/04/21 06:10:59;;;;;;;12.97;8.87;;;7.90;99.90;;;;;;5038334;28;20257;-58
2021/04/21 06:13:29;;;;;;;13.30;9.50;;;8.00;99.90;;;;;;5017947;28;20200;-54
2021/04/21 06:15:56;;;;;;;16.90;10.23;;;8.20;99.90;;;;;;5006847;28;20202;-59
2021/04/21 06:18:23;;;;;;;14.80;9.97;;;8.30;99.90;;;;;;5015661;28;20208;-56
2021/04/21 06:20:50;;;;;;;12.73;9.37;;;8.40;99.90;;;;;;5020746;28;20212;-57
2021/04/21 06:23:18;;;;;;;12.40;9.13;;;8.50;99.90;;;;;;5016240;28;20226;-53
2021/04/21 06:25:47;;;;;;;14.50;9.47;;;8.60;99.90;;;;;;5040091;28;20195;-59
2021/04/21 06:28:16;;;;;;;12.43;9.40;;;8.70;99.90;;;;;;5022610;28;20208;-55
2021/04/21 06:30:44;;;;;;;14.40;9.57;;;8.80;99.90;;;;;;5014982;28;20220;-58
2021/04/21 06:33:10;;;;;;;15.27;10.23;;;8.90;99.90;;;;;;5025197;28;23506;-59
2021/04/21 06:35:38;;;;;;;14.07;9.57;;;9.00;99.90;;;;;;5040094;28;20195;-59
2021/04/21 06:38:06;;;;;;;12.73;9.70;;;9.10;99.90;;;;;;5008263;28;20985;-58
2021/04/21 06:40:33;;;;;;;12.67;9.70;;;9.20;99.90;;;;;;5041603;28;20715;-59
2021/04/21 06:43:01;;;;;;;13.47;9.57;;;9.30;99.90;;;;;;5024119;28;20215;-51
2021/04/21 06:45:29;;;;;;;12.20;9.60;;;9.30;99.90;;;;;;5022480;28;20208;-56
2021/04/21 06:47:57;;;;;;;11.63;8.70;;;9.40;99.90;;;;;;5021420;28;20207;-55
2021/04/21 06:50:31;;;;;;;13.67;9.43;;;9.50;99.90;;;;;;5023186;28;20247;-59
2021/04/21 06:53:02;;;;;;;13.33;9.50;;;9.60;99.90;;;;;;5013788;28;20565;-58
2021/04/21 06:55:29;;;;;;;11.40;9.07;;;9.60;99.90;;;;;;5004594;28;20216;-56
2021/04/21 06:57:56;;;;;;;12.37;9.23;;;9.70;99.90;;;;;;5020840;28;20583;-57
2021/04/21 07:00:25;;;;;;;12.90;9.37;;;9.80;99.90;;;;;;5020668;28;20234;-56
2021/04/21 07:02:53;;;;;;;11.97;8.87;;;9.90;99.90;;;;;;5034484;28;20292;-57
2021/04/21 07:05:30;;;;;;;14.37;9.43;;;10.00;99.90;;;;;;5044534;28;20199;-57
2021/04/21 07:08:08;;;;;;;11.20;8.57;;;10.10;99.90;;;;;;5017942;28;20203;-58
2021/04/21 07:10:36;;;;;;;12.60;8.60;;;10.10;99.90;;;;;;5021806;28;20230;-56
2021/04/21 07:13:04;;;;;;;12.90;9.27;;;10.10;99.90;;;;;;5031101;28;20187;-59
2021/04/21 07:15:34;;;;;;;12.13;9.17;;;10.20;99.90;;;;;;5010894;28;20306;-56
2021/04/21 07:18:01;;;;;;;9.70;8.70;;;10.30;99.90;;;;;;5024072;28;20676;-58
2021/04/21 07:20:27;;;;;;;11.80;8.90;;;10.30;99.90;;;;;;5031337;28;20226;-56
2021/04/21 07:22:55;;;;;;;12.70;9.90;;;10.40;99.90;;;;;;5023283;28;20283;-59
2021/04/21 07:25:22;;;;;;;15.90;9.60;;;10.50;99.90;;;;;;5019902;28;20204;-56
2021/04/21 07:27:54;;;;;;;14.57;9.23;;;10.50;99.90;;;;;;5017376;28;20836;-56
2021/04/21 07:30:28;;;;;;;12.57;11.07;;;10.50;99.90;;;;;;5019916;28;20254;-55
2021/04/21 07:32:56;;;;;;;16.17;10.20;;;10.50;99.90;;;;;;5019284;28;20341;-57
2021/04/21 07:35:24;;;;;;;15.33;10.93;;;10.60;99.90;;;;;;5020643;28;20210;-56
2021/04/21 07:37:51;;;;;;;18.33;12.23;;;10.60;99.90;;;;;;5025070;28;20192;-59
2021/04/21 07:40:28;;;;;;;19.27;12.90;;;10.70;99.90;;;;;;5043679;28;20716;-54
2021/04/21 07:43:10;;;;;;;18.53;12.17;;;10.80;99.90;;;;;;5019035;28;20216;-59
2021/04/21 07:45:46;;;;;;;20.53;12.53;;;11.00;99.90;;;;;;5018978;28;20207;-58
2021/04/21 07:48:45;;;;;;;21.17;14.50;;;11.00;99.90;;;;;;5020740;28;20657;-58
2021/04/21 07:51:48;;;;;;;20.67;14.90;;;11.00;99.90;;;;;;5024015;28;20283;-57
2021/04/21 07:54:32;;;;;;;18.43;13.40;;;11.00;99.90;;;;;;5021449;28;20688;-57
2021/04/21 07:57:02;;;;;;;21.87;14.30;;;10.90;99.90;;;;;;5019765;28;20688;-59
2021/04/21 07:59:31;;;;;;;21.30;15.27;;;11.10;99.90;;;;;;5010542;28;20232;-58
2021/04/21 08:02:03;;;;;;;24.37;14.97;;;11.20;99.90;;;;;;5023311;28;20835;-55
2021/04/21 08:04:30;;;;;;;21.77;15.17;;;11.30;99.90;;;;;;5024404;28;20301;-56
2021/04/21 08:06:58;;;;;;;18.27;14.57;;;11.30;99.90;;;;;;5024822;28;20192;-55
2021/04/21 08:09:32;;;;;;;22.50;15.63;;;11.30;99.90;;;;;;5034967;28;20216;-57
2021/04/21 08:12:11;;;;;;;19.57;14.93;;;11.20;99.90;;;;;;5011286;28;20622;-55
2021/04/21 08:14:42;;;;;;;22.47;13.30;;;11.30;99.90;;;;;;5021518;28;20199;-59
2021/04/21 08:17:09;;;;;;;22.27;16.90;;;11.20;99.90;;;;;;5017758;28;20514;-57
2021/04/21 08:19:38;;;;;;;20.90;14.70;;;11.20;99.90;;;;;;5011997;28;20208;-56
2021/04/21 08:22:05;;;;;;;24.47;16.80;;;11.10;99.90;;;;;;5024463;28;20208;-59
2021/04/21 08:24:39;;;;;;;22.47;16.93;;;11.00;99.90;;;;;;5020995;28;20294;-51
2021/04/21 08:27:06;;;;;;;24.90;17.77;;;11.10;99.90;;;;;;5022582;28;20208;-58
2021/04/21 08:29:32;;;;;;;24.10;18.03;;;11.10;99.90;;;;;;5010667;28;20211;-57
2021/04/21 08:31:58;;;;;;;24.73;17.93;;;11.00;99.90;;;;;;5018494;28;20269;-58
2021/04/21 08:34:25;;;;;;;26.17;19.60;;;10.80;99.90;;;;;;5010469;28;20204;-54
2021/04/21 08:36:51;;;;;;;28.13;18.53;;;10.60;99.90;;;;;;5017433;28;20274;-57
2021/04/21 08:39:18;;;;;;;24.10;18.17;;;10.50;99.90;;;;;;5028468;28;20191;-51
2021/04/21 08:41:44;;;;;;;29.80;18.93;;;10.40;99.90;;;;;;5025152;28;20263;-57
2021/04/21 08:44:11;;;;;;;26.53;17.73;;;10.40;99.90;;;;;;5016012;28;20241;-54
2021/04/21 08:46:38;;;;;;;26.27;16.93;;;10.40;99.90;;;;;;5031583;28;20208;-58
2021/04/21 08:49:06;;;;;;;24.83;17.07;;;10.40;99.90;;;;;;5024769;28;20196;-56
2021/04/21 08:51:32;;;;;;;25.13;17.67;;;10.40;99.90;;;;;;5020215;28;20310;-59
2021/04/21 08:54:04;;;;;;;28.00;19.47;;;10.60;99.90;;;;;;5022037;28;20187;-56
2021/04/21 08:56:32;;;;;;;28.23;19.03;;;10.70;99.90;;;;;;5015800;28;20197;-58
2021/04/21 08:58:59;;;;;;;28.73;17.87;;;10.60;99.90;;;;;;5019734;28;20200;-53
2021/04/21 09:01:26;;;;;;;27.37;17.67;;;10.60;99.90;;;;;;5004089;28;20231;-56
2021/04/21 09:03:52;;;;;;;31.07;18.00;;;10.70;99.90;;;;;;5019344;28;20216;-54
2021/04/21 09:06:19;;;;;;;26.17;18.77;;;10.90;99.90;;;;;;5017138;28;23297;-55
2021/04/21 09:08:46;;;;;;;28.17;18.43;;;10.90;99.90;;;;;;5020161;28;20208;-58
2021/04/21 09:11:13;;;;;;;27.93;17.87;;;10.90;99.90;;;;;;5032541;28;20215;-56
2021/04/21 09:13:39;;;;;;;24.10;17.47;;;10.80;99.90;;;;;;5043886;28;20211;-56
2021/04/21 09:16:07;;;;;;;28.13;19.17;;;10.90;99.90;;;;;;5025966;28;20253;-55
2021/04/21 09:18:35;;;;;;;25.23;15.93;;;11.00;99.90;;;;;;5042111;28;20252;-53
2021/04/21 09:21:06;;;;;;;22.20;16.33;;;11.10;99.90;;;;;;5035997;28;20704;-51
2021/04/21 09:23:36;;;;;;;20.97;15.77;;;11.00;99.90;;;;;;5023665;28;20216;-55
2021/04/21 09:26:14;;;;;;;23.07;15.37;;;11.00;99.90;;;;;;5019283;28;20278;-55
2021/04/21 09:28:42;;;;;;;22.17;15.30;;;11.00;99.90;;;;;;5023411;28;20278;-58
2021/04/21 09:31:14;;;;;;;22.20;16.17;;;11.00;99.90;;;;;;5019631;28;20300;-56
2021/04/21 09:33:40;;;;;;;23.13;14.40;;;11.00;99.90;;;;;;5024432;28;20204;-56
2021/04/21 09:36:06;;;;;;;21.50;15.10;;;10.90;99.90;;;;;;5033272;28;20788;-53
2021/04/21 09:38:32;;;;;;;20.13;14.30;;;10.80;99.90;;;;;;5032077;28;20195;-57
2021/04/21 09:41:01;;;;;;;21.03;14.80;;;10.80;99.90;;;;;;5040521;28;20226;-54
2021/04/21 09:43:30;;;;;;;20.00;13.67;;;10.80;99.90;;;;;;5043065;28;20219;-57
2021/04/21 09:45:58;;;;;;;18.73;14.03;;;10.70;99.90;;;;;;5040222;28;20293;-54
2021/04/21 09:48:27;;;;;;;17.27;13.10;;;10.70;99.90;;;;;;5028012;28;20260;-58
2021/04/21 09:50:59;;;;;;;18.17;12.67;;;10.70;99.90;;;;;;5041283;28;20215;-53
2021/04/21 09:53:31;;;;;;;18.10;12.23;;;10.70;99.90;;;;;;5025836;28;20210;-58
2021/04/21 09:56:08;;;;;;;13.20;11.00;;;10.70;99.90;;;;;;5021048;28;20195;-51
2021/04/21 09:58:38;;;;;;;15.77;10.73;;;10.70;99.90;;;;;;5023313;28;20211;-55
2021/04/21 10:01:35;;;;;;;16.60;12.33;;;10.60;99.90;;;;;;5019661;28;20212;-56
2021/04/21 10:04:13;;;;;;;14.73;10.20;;;10.70;99.90;;;;;;5014973;28;20230;-51
2021/04/21 10:06:47;;;;;;;15.30;10.17;;;10.70;99.90;;;;;;5042087;28;20199;-57
2021/04/21 10:09:32;;;;;;;16.40;11.33;;;10.70;99.90;;;;;;5030400;28;20191;-58
2021/04/21 10:12:16;;;;;;;12.37;10.23;;;10.60;99.90;;;;;;5000857;28;20216;-53
2021/04/21 10:14:45;;;;;;;14.73;10.27;;;10.60;99.90;;;;;;5006657;28;20191;-53
2021/04/21 10:17:13;;;;;;;14.07;9.57;;;10.50;99.90;;;;;;5003629;28;20192;-55
2021/04/21 10:19:41;;;;;;;14.30;9.97;;;10.50;99.90;;;;;;5004959;28;20199;-57
2021/04/21 10:22:10;;;;;;;14.13;9.43;;;10.50;99.90;;;;;;5036787;28;20210;-52
2021/04/21 10:24:37;;;;;;;13.73;9.80;;;10.50;99.90;;;;;;5027129;28;20274;-57
2021/04/21 10:27:04;;;;;;;13.27;9.10;;;10.50;99.90;;;;;;5023738;28;20245;-52
2021/04/21 10:29:31;;;;;;;12.30;9.03;;;10.60;99.90;;;;;;5027206;28;20700;-54
2021/04/21 10:31:58;;;;;;;10.00;8.30;;;10.80;99.90;;;;;;5024747;28;20211;-55
2021/04/21 10:34:24;;;;;;;7.07;6.20;;;10.80;99.90;;;;;;5040597;28;20198;-59
2021/04/21 10:36:51;;;;;;;9.30;5.47;;;10.90;99.90;;;;;;5031963;28;20289;-56
2021/04/21 10:39:34;;;;;;;7.93;5.33;;;10.90;99.90;;;;;;5034815;28;20203;-58
2021/04/21 10:42:09;;;;;;;7.63;4.87;;;10.90;99.90;;;;;;5043768;28;20225;-53
2021/04/21 10:44:37;;;;;;;10.00;4.60;;;10.90;99.90;;;;;;5028227;28;20223;-55
2021/04/21 10:47:10;;;;;;;7.47;4.67;;;10.80;99.90;;;;;;5024913;28;20937;-58
2021/04/21 10:49:41;;;;;;;7.67;4.10;;;11.00;99.90;;;;;;5020507;28;20701;-55
2021/04/21 10:52:12;;;;;;;5.27;3.80;;;11.20;99.90;;;;;;5014752;28;20316;-54
2021/04/21 10:54:39;;;;;;;4.40;3.40;;;11.40;99.90;;;;;;5029775;28;20218;-54
2021/04/21 10:57:28;;;;;;;3.40;3.10;;;11.50;99.90;;;;;;5045522;28;20183;-54
2021/04/21 11:00:13;;;;;;;4.93;3.20;;;11.50;99.90;;;;;;5043261;28;20184;-54
2021/04/21 11:02:47;;;;;;;4.57;2.47;;;11.50;99.90;;;;;;5043720;28;20197;-54
2021/04/21 11:05:14;;;;;;;4.67;2.10;;;11.50;99.90;;;;;;5030880;28;20203;-52
2021/04/21 11:07:43;;;;;;;6.07;1.93;;;11.50;99.90;;;;;;5021624;28;20211;-52
2021/04/21 11:10:30;;;;;;;2.80;1.77;;;11.40;99.90;;;;;;5008723;28;20224;-54
2021/04/21 11:12:59;;;;;;;3.30;2.37;;;11.40;99.90;;;;;;5020127;28;20954;-53
2021/04/21 11:15:34;;;;;;;3.40;2.37;;;11.50;99.90;;;;;;5017343;28;20214;-53
2021/04/21 11:18:24;;;;;;;10.03;2.60;;;11.60;99.90;;;;;;5021956;28;20203;-50
2021/04/21 11:20:52;;;;;;;17.17;3.13;;;11.70;99.90;;;;;;5008589;28;20224;-51
2021/04/21 11:23:49;;;;;;;5.07;2.30;;;11.80;99.90;;;;;;5012647;28;20224;-51
2021/04/21 11:26:35;;;;;;;4.90;2.20;;;12.00;99.90;;;;;;5016290;28;20243;-51
2021/04/21 11:29:05;;;;;;;4.97;2.13;;;12.10;99.90;;;;;;5008333;28;20216;-53
2021/04/21 11:32:08;;;;;;;5.37;2.43;;;12.10;99.90;;;;;;5017746;28;20263;-52
2021/04/21 11:34:37;;;;;;;3.77;1.70;;;12.20;99.90;;;;;;5024567;28;20291;-51
2021/04/21 11:37:04;;;;;;;3.90;1.53;;;12.40;99.90;;;;;;5019552;28;20215;-57
2021/04/21 11:39:50;;;;;;;8.50;2.60;;;12.50;99.70;;;;;;5016027;28;20200;-53
2021/04/21 11:42:19;;;;;;;3.53;1.77;;;12.30;97.10;;;;;;5013818;28;20212;-49
2021/04/21 11:44:54;;;;;;;3.70;1.77;;;12.20;98.60;;;;;;5005586;28;20331;-52
2021/04/21 11:47:41;;;;;;;3.70;1.83;;;12.10;97.10;;;;;;5015795;28;20704;-52
2021/04/21 11:50:30;;;;;;;7.37;1.90;;;12.00;96.90;;;;;;5020991;28;20295;-50
2021/04/21 11:53:02;;;;;;;4.10;1.70;;;12.10;97.20;;;;;;5012590;28;20242;-52
2021/04/21 11:55:34;;;;;;;7.03;1.70;;;11.90;98.10;;;;;;5014228;28;20663;-52
2021/04/21 11:58:03;;;;;;;7.70;1.50;;;12.00;97.90;;;;;;5009709;28;20684;-51
2021/04/21 12:00:33;;;;;;;3.53;1.33;;;12.00;97.30;;;;;;5018639;28;20263;-54
2021/04/21 12:03:00;;;;;;;4.67;1.80;;;11.90;96.40;;;;;;5012666;28;20348;-53
2021/04/21 12:05:33;;;;;;;6.83;1.50;;;11.90;97.40;;;;;;5027661;28;20658;-52
2021/04/21 12:08:01;;;;;;;10.07;2.23;;;12.00;97.20;;;;;;5019198;28;20200;-50
2021/04/21 12:10:32;;;;;;;6.43;1.83;;;12.00;97.50;;;;;;5017696;28;20314;-55
2021/04/21 12:13:15;;;;;;;4.93;1.60;;;11.90;97.90;;;;;;5023888;28;21042;-51
2021/04/21 12:15:42;;;;;;;6.57;2.20;;;11.80;98.20;;;;;;5018082;28;20212;-49
2021/04/21 12:18:09;;;;;;;5.03;1.43;;;11.60;97.70;;;;;;5012458;28;20653;-49
2021/04/21 12:20:35;;;;;;;4.73;1.43;;;11.60;96.50;;;;;;5024132;28;20220;-53
2021/04/21 12:23:02;;;;;;;3.60;1.40;;;11.70;96.20;;;;;;5019653;28;20918;-51
2021/04/21 12:25:29;;;;;;;5.17;1.60;;;11.80;95.20;;;;;;5021710;28;20211;-52
2021/04/21 12:27:59;;;;;;;8.03;1.93;;;12.00;95.30;;;;;;5020407;28;20216;-51
2021/04/21 12:30:29;;;;;;;3.97;1.03;;;12.00;94.40;;;;;;5019663;28;20234;-53
2021/04/21 12:33:05;;;;;;;6.50;1.47;;;11.90;93.00;;;;;;5012460;28;21143;-53
2021/04/21 12:35:32;;;;;;;4.87;1.40;;;11.70;91.50;;;;;;5030265;28;20206;-50
2021/04/21 12:38:00;;;;;;;6.67;1.30;;;11.70;92.70;;;;;;5033885;28;20429;-51
2021/04/21 12:40:31;;;;;;;4.10;1.20;;;11.60;92.90;;;;;;5017779;28;20230;-54
2021/04/21 12:43:09;;;;;;;2.67;1.40;;;11.60;92.90;;;;;;5016813;28;20212;-50
2021/04/21 12:45:36;;;;;;;6.17;1.83;;;11.40;90.70;;;;;;5015621;28;20199;-53
2021/04/21 12:48:22;;;;;;;7.53;1.50;;;11.20;91.90;;;;;;5014935;28;20207;-49
2021/04/21 12:50:49;;;;;;;3.33;1.60;;;11.40;90.10;;;;;;5016563;28;20229;-53
2021/04/21 12:53:18;;;;;;;7.43;1.50;;;11.40;90.20;;;;;;5034145;28;20203;-50
2021/04/21 12:55:45;;;;;;;5.80;1.50;;;11.30;90.20;;;;;;5007531;28;20207;-51
2021/04/21 12:58:12;;;;;;;8.30;2.40;;;11.50;90.60;;;;;;5031048;28;20658;-53
2021/04/21 13:00:39;;;;;;;6.17;1.80;;;11.60;90.40;;;;;;5022582;28;20774;-51
2021/04/21 13:03:16;;;;;;;5.80;2.43;;;11.80;90.70;;;;;;5027686;28;20224;-50
2021/04/21 13:05:51;;;;;;;5.33;1.90;;;12.00;78.90;;;;;;5016024;28;20207;-53
2021/04/21 13:08:28;;;;;;;5.40;1.67;;;12.00;69.20;;;;;;5017565;28;20211;-50
2021/04/21 13:10:56;;;;;;;5.67;1.77;;;12.10;69.00;;;;;;5022140;28;20231;-53
2021/04/21 13:13:27;;;;;;;4.07;1.70;;;12.40;68.90;;;;;;5011802;28;20677;-51
2021/04/21 13:15:54;;;;;;;5.27;2.00;;;12.80;69.70;;;;;;5019436;28;20211;-51